createdAt,value
2018-11-11T00:00:30.744Z,112.72
2018-11-11T00:01:03.390Z,116.35
2018-11-11T00:01:35.979Z,97.47
2018-11-11T00:02:08.611Z,114.52
2018-11-11T00:02:41.227Z,116.05
2018-11-11T00:03:13.873Z,110.97
2018-11-11T00:03:46.451Z,107.17
2018-11-11T00:04:19.038Z,101.40
2018-11-11T00:04:51.784Z,109.75
2018-11-11T00:05:25.990Z,113.40
2018-11-11T00:05:58.607Z,113.95
2018-11-11T00:06:31.236Z,111.95
2018-11-11T00:07:04.067Z,113.65
2018-11-11T00:07:36.754Z,108.75
2018-11-11T00:08:09.452Z,108.32
2018-11-11T00:08:42.100Z,103.53
2018-11-11T00:09:14.764Z,115.45
2018-11-11T00:09:47.496Z,105.40
2018-11-11T00:10:20.205Z,105.27
2018-11-11T00:10:52.812Z,108.78
2018-11-11T00:11:25.474Z,105.60
2018-11-11T00:11:58.106Z,100.60
2018-11-11T00:12:30.714Z,102.60
2018-11-11T00:13:03.368Z,106.87
2018-11-11T00:13:36.010Z,114.97
2018-11-11T00:14:08.915Z,99.92
2018-11-11T00:14:41.519Z,97.97
2018-11-11T00:15:16.323Z,114.47
2018-11-11T00:15:50.445Z,115.28
2018-11-11T00:16:24.289Z,95.05
2018-11-11T00:16:57.724Z,104.53
2018-11-11T00:17:31.142Z,106.63
2018-11-11T00:18:03.895Z,101.30
2018-11-11T00:18:37.792Z,111.95
2018-11-11T00:19:11.398Z,106.07
2018-11-11T00:19:44.078Z,101.35
2018-11-11T00:20:18.038Z,102.65
2018-11-11T00:20:51.259Z,111.72
2018-11-11T00:21:24.936Z,103.22
2018-11-11T00:21:58.758Z,105.45
2018-11-11T00:22:33.122Z,109.12
2018-11-11T00:23:05.898Z,102.78
2018-11-11T00:23:39.531Z,105.30
2018-11-11T00:24:13.028Z,104.32
2018-11-11T00:24:47.046Z,106.00
2018-11-11T00:25:20.280Z,98.85
2018-11-11T00:25:52.912Z,106.27
2018-11-11T00:26:27.304Z,109.12
2018-11-11T00:27:01.123Z,103.20
2018-11-11T00:27:34.484Z,115.20
2018-11-11T00:28:08.327Z,100.87
2018-11-11T00:28:43.059Z,105.15
2018-11-11T00:29:16.094Z,108.52
2018-11-11T00:29:49.146Z,106.72
2018-11-11T00:30:22.240Z,104.65
2018-11-11T00:30:56.133Z,107.25
2018-11-11T00:31:28.738Z,116.35
2018-11-11T00:32:01.687Z,117.57
2018-11-11T00:32:34.735Z,113.15
2018-11-11T00:33:09.295Z,109.10
2018-11-11T00:33:43.561Z,104.20
2018-11-11T00:34:17.712Z,95.38
2018-11-11T00:34:51.470Z,106.92
2018-11-11T00:35:24.361Z,111.05
2018-11-11T00:35:58.227Z,101.25
2018-11-11T00:36:32.188Z,99.83
2018-11-11T00:37:06.432Z,104.00
2018-11-11T00:37:40.145Z,112.45
2018-11-11T00:38:12.917Z,102.22
2018-11-11T00:38:46.416Z,106.65
2018-11-11T00:39:19.347Z,96.70
2018-11-11T00:39:54.452Z,93.37
2018-11-11T00:40:28.761Z,102.67
2018-11-11T00:41:02.531Z,88.50
2018-11-11T00:41:35.147Z,93.05
2018-11-11T00:42:08.667Z,84.37
2018-11-11T00:42:41.671Z,92.65
2018-11-11T00:43:15.144Z,87.72
2018-11-11T00:43:49.002Z,94.35
2018-11-11T00:44:21.667Z,98.97
2018-11-11T00:44:55.058Z,91.53
2018-11-11T00:45:28.622Z,108.15
2018-11-11T00:46:02.804Z,93.42
2018-11-11T00:46:35.916Z,94.37
2018-11-11T00:47:09.701Z,91.42
2018-11-11T00:47:45.070Z,99.70
2018-11-11T00:48:18.870Z,103.47
2018-11-11T00:48:52.751Z,103.60
2018-11-11T00:49:25.835Z,88.10
2018-11-11T00:50:00.018Z,90.07
2018-11-11T00:50:33.107Z,90.40
2018-11-11T00:51:07.177Z,90.07
2018-11-11T00:51:40.841Z,87.22
2018-11-11T00:52:14.695Z,91.32
2018-11-11T00:52:48.746Z,88.05
2018-11-11T00:53:22.121Z,83.42
2018-11-11T00:53:55.991Z,75.62
2018-11-11T00:54:30.446Z,106.35
2018-11-11T00:55:05.681Z,94.17
2018-11-11T00:55:40.139Z,77.92
2018-11-11T00:56:14.612Z,85.47
2018-11-11T00:56:47.834Z,101.18
2018-11-11T00:57:20.730Z,75.78
2018-11-11T00:57:54.608Z,79.80
2018-11-11T00:58:28.582Z,81.53
2018-11-11T00:59:01.361Z,76.47
2018-11-11T00:59:35.451Z,78.33
2018-11-11T01:00:14.138Z,90.10
2018-11-11T01:00:46.731Z,76.28
2018-11-11T01:01:20.115Z,83.75
2018-11-11T01:01:53.875Z,73.05
2018-11-11T01:02:26.529Z,72.78
2018-11-11T01:03:00.495Z,74.60
2018-11-11T01:03:34.687Z,70.95
2018-11-11T01:04:08.426Z,95.20
2018-11-11T01:04:41.275Z,73.30
2018-11-11T01:05:15.795Z,66.90
2018-11-11T01:05:49.560Z,68.42
2018-11-11T01:06:23.864Z,71.12
2018-11-11T01:06:57.303Z,82.05
2018-11-11T01:07:31.997Z,75.00
2018-11-11T01:08:06.025Z,59.70
2018-11-11T01:08:39.694Z,87.00
2018-11-11T01:09:13.425Z,63.15
2018-11-11T01:09:46.607Z,94.47
2018-11-11T01:10:20.360Z,64.85
2018-11-11T01:10:54.112Z,64.77
2018-11-11T01:11:26.922Z,106.78
2018-11-11T01:12:00.741Z,67.72
2018-11-11T01:12:34.505Z,65.55
2018-11-11T01:13:08.387Z,69.27
2018-11-11T01:13:43.037Z,70.70
2018-11-11T01:14:16.867Z,71.67
2018-11-11T01:14:50.814Z,70.78
2018-11-11T01:15:25.050Z,67.08
2018-11-11T01:15:57.639Z,79.10
2018-11-11T01:16:30.682Z,79.70
2018-11-11T01:17:03.876Z,75.28
2018-11-11T01:17:37.306Z,83.92
2018-11-11T01:18:10.763Z,78.00
2018-11-11T01:18:44.785Z,71.97
2018-11-11T01:19:18.806Z,72.85
2018-11-11T01:19:51.898Z,68.25
2018-11-11T01:20:26.346Z,78.55
2018-11-11T01:20:59.273Z,76.97
2018-11-11T01:21:32.859Z,75.85
2018-11-11T01:22:06.724Z,66.05
2018-11-11T01:22:40.580Z,72.80
2018-11-11T01:23:13.863Z,66.85
2018-11-11T01:23:47.450Z,68.22
2018-11-11T01:24:21.259Z,70.78
2018-11-11T01:24:55.585Z,66.10
2018-11-11T01:25:28.292Z,71.15
2018-11-11T01:26:01.377Z,126.65
2018-11-11T01:26:35.954Z,68.87
2018-11-11T01:27:09.589Z,76.80
2018-11-11T01:27:42.307Z,69.72
2018-11-11T01:28:16.927Z,73.47
2018-11-11T01:28:51.911Z,74.95
2018-11-11T01:29:24.696Z,73.62
2018-11-11T01:29:57.792Z,80.35
2018-11-11T01:30:30.355Z,75.90
2018-11-11T01:31:04.608Z,72.22
2018-11-11T01:31:38.180Z,104.67
2018-11-11T01:32:11.991Z,82.67
2018-11-11T01:32:45.737Z,85.38
2018-11-11T01:33:19.694Z,103.62
2018-11-11T01:33:54.391Z,96.40
2018-11-11T01:34:28.275Z,68.87
2018-11-11T01:35:02.292Z,96.75
2018-11-11T01:35:36.637Z,77.85
2018-11-11T01:36:10.598Z,100.42
2018-11-11T01:36:44.992Z,76.07
2018-11-11T01:37:17.683Z,116.88
2018-11-11T01:37:50.283Z,87.62
2018-11-11T01:38:22.875Z,99.28
2018-11-11T01:38:55.464Z,88.12
2018-11-11T01:39:28.099Z,70.72
2018-11-11T01:40:00.717Z,89.58
2018-11-11T01:40:33.311Z,70.92
2018-11-11T01:41:05.954Z,76.95
2018-11-11T01:41:38.542Z,79.15
2018-11-11T01:42:11.155Z,68.75
2018-11-11T01:42:43.798Z,80.85
2018-11-11T01:43:16.424Z,81.37
2018-11-11T01:43:49.022Z,77.47
2018-11-11T01:44:21.605Z,67.42
2018-11-11T01:44:54.185Z,77.70
2018-11-11T01:45:26.807Z,67.95
2018-11-11T01:45:59.416Z,78.85
2018-11-11T01:46:32.014Z,94.32
2018-11-11T01:47:04.685Z,92.27
2018-11-11T01:47:37.286Z,72.95
2018-11-11T01:48:09.948Z,63.38
2018-11-11T01:48:42.565Z,94.28
2018-11-11T01:49:15.146Z,71.53
2018-11-11T01:49:47.742Z,66.40
2018-11-11T01:50:20.357Z,66.25
2018-11-11T01:50:52.935Z,69.22
2018-11-11T01:51:25.504Z,83.65
2018-11-11T01:51:58.127Z,91.42
2018-11-11T01:52:30.750Z,74.67
2018-11-11T01:53:03.363Z,69.65
2018-11-11T01:53:36.012Z,84.60
2018-11-11T01:54:08.580Z,64.53
2018-11-11T01:54:41.243Z,71.35
2018-11-11T01:55:14.211Z,74.22
2018-11-11T01:55:46.834Z,70.72
2018-11-11T01:56:19.402Z,79.67
2018-11-11T01:56:51.971Z,109.70
2018-11-11T01:57:24.552Z,78.65
2018-11-11T01:57:57.124Z,71.60
2018-11-11T01:58:29.727Z,69.45
2018-11-11T01:59:02.381Z,71.20
2018-11-11T01:59:34.955Z,76.30
2018-11-11T02:00:19.364Z,71.57
2018-11-11T02:00:51.944Z,61.15
2018-11-11T02:01:24.572Z,75.60
2018-11-11T02:01:57.175Z,64.45
2018-11-11T02:02:29.745Z,62.83
2018-11-11T02:03:02.368Z,66.35
2018-11-11T02:03:34.944Z,63.83
2018-11-11T02:04:07.571Z,63.55
2018-11-11T02:04:40.163Z,68.05
2018-11-11T02:05:13.286Z,68.07
2018-11-11T02:05:45.886Z,72.20
2018-11-11T02:06:18.487Z,79.95
2018-11-11T02:06:51.075Z,67.58
2018-11-11T02:07:23.685Z,57.60
2018-11-11T02:07:56.309Z,61.90
2018-11-11T02:08:28.886Z,58.85
2018-11-11T02:09:01.475Z,62.30
2018-11-11T02:09:34.091Z,62.62
2018-11-11T02:10:07.915Z,58.98
2018-11-11T02:10:40.544Z,72.32
2018-11-11T02:11:13.195Z,58.70
2018-11-11T02:11:45.778Z,64.65
2018-11-11T02:12:18.400Z,63.08
2018-11-11T02:12:51.029Z,57.30
2018-11-11T02:13:23.669Z,65.65
2018-11-11T02:13:56.662Z,86.45
2018-11-11T02:14:29.239Z,59.85
2018-11-11T02:15:01.917Z,60.35
2018-11-11T02:15:34.512Z,60.05
2018-11-11T02:16:07.107Z,83.58
2018-11-11T02:16:39.718Z,63.05
2018-11-11T02:17:12.295Z,54.48
2018-11-11T02:17:44.937Z,55.67
2018-11-11T02:18:17.526Z,64.58
2018-11-11T02:18:50.122Z,57.25
2018-11-11T02:19:22.745Z,59.65
2018-11-11T02:19:56.564Z,67.53
2018-11-11T02:20:29.230Z,68.42
2018-11-11T02:21:01.963Z,59.93
2018-11-11T02:21:34.646Z,61.55
2018-11-11T02:22:07.238Z,60.98
2018-11-11T02:22:39.916Z,65.15
2018-11-11T02:23:12.540Z,54.25
2018-11-11T02:23:45.174Z,52.03
2018-11-11T02:24:17.828Z,54.33
2018-11-11T02:24:50.410Z,58.02
2018-11-11T02:25:22.995Z,55.90
2018-11-11T02:25:55.607Z,57.40
2018-11-11T02:26:28.216Z,71.17
2018-11-11T02:27:00.817Z,56.28
2018-11-11T02:27:33.453Z,59.98
2018-11-11T02:28:06.072Z,58.28
2018-11-11T02:28:38.690Z,55.60
2018-11-11T02:29:11.287Z,58.85
2018-11-11T02:29:43.913Z,81.57
2018-11-11T02:30:17.768Z,60.70
2018-11-11T02:30:50.384Z,67.50
2018-11-11T02:31:23.014Z,56.70
2018-11-11T02:31:55.600Z,65.08
2018-11-11T02:32:28.212Z,53.60
2018-11-11T02:33:00.784Z,64.40
2018-11-11T02:33:33.455Z,66.77
2018-11-11T02:34:06.101Z,73.37
2018-11-11T02:34:38.724Z,60.50
2018-11-11T02:35:11.736Z,66.15
2018-11-11T02:35:44.359Z,62.15
2018-11-11T02:36:16.952Z,58.95
2018-11-11T02:36:49.604Z,62.17
2018-11-11T02:37:22.196Z,66.17
2018-11-11T02:37:54.818Z,53.80
2018-11-11T02:38:27.433Z,53.98
2018-11-11T02:39:00.079Z,88.78
2018-11-11T02:39:32.698Z,80.22
2018-11-11T02:40:07.375Z,63.38
2018-11-11T02:40:39.976Z,55.52
2018-11-11T02:41:12.555Z,59.98
2018-11-11T02:41:45.166Z,70.75
2018-11-11T02:42:17.810Z,53.23
2018-11-11T02:42:50.402Z,52.27
2018-11-11T02:43:22.975Z,57.40
2018-11-11T02:43:55.580Z,70.08
2018-11-11T02:44:28.223Z,54.85
2018-11-11T02:45:00.831Z,59.00
2018-11-11T02:45:33.428Z,64.30
2018-11-11T02:46:06.054Z,54.15
2018-11-11T02:46:38.668Z,67.08
2018-11-11T02:47:11.291Z,62.43
2018-11-11T02:47:43.938Z,67.05
2018-11-11T02:48:16.510Z,77.27
2018-11-11T02:48:49.103Z,62.95
2018-11-11T02:49:21.752Z,53.10
2018-11-11T02:49:54.329Z,54.77
2018-11-11T02:50:26.919Z,66.82
2018-11-11T02:50:59.533Z,112.52
2018-11-11T02:51:32.142Z,67.75
2018-11-11T02:52:04.985Z,61.95
2018-11-11T02:52:37.775Z,60.25
2018-11-11T02:53:10.379Z,65.00
2018-11-11T02:53:42.949Z,57.43
2018-11-11T02:54:15.827Z,52.23
2018-11-11T02:54:48.441Z,55.50
2018-11-11T02:55:21.072Z,80.77
2018-11-11T02:55:53.684Z,53.83
2018-11-11T02:56:26.268Z,53.10
2018-11-11T02:56:58.883Z,50.67
2018-11-11T02:57:31.478Z,59.00
2018-11-11T02:58:04.079Z,65.65
2018-11-11T02:58:36.703Z,72.10
2018-11-11T02:59:09.291Z,57.90
2018-11-11T02:59:41.901Z,55.43
2018-11-11T03:00:16.726Z,53.83
2018-11-11T03:00:49.330Z,53.65
2018-11-11T03:01:21.960Z,58.83
2018-11-11T03:01:54.557Z,53.63
2018-11-11T03:02:27.122Z,53.68
2018-11-11T03:02:59.700Z,49.58
2018-11-11T03:03:32.295Z,58.85
2018-11-11T03:04:04.928Z,50.83
2018-11-11T03:04:37.563Z,58.10
2018-11-11T03:05:11.374Z,48.17
2018-11-11T03:05:43.960Z,57.83
2018-11-11T03:06:16.561Z,53.15
2018-11-11T03:06:49.152Z,60.85
2018-11-11T03:07:21.788Z,51.77
2018-11-11T03:07:54.394Z,58.28
2018-11-11T03:08:26.990Z,65.25
2018-11-11T03:08:59.571Z,57.38
2018-11-11T03:09:32.178Z,50.23
2018-11-11T03:10:04.986Z,49.80
2018-11-11T03:10:37.617Z,63.55
2018-11-11T03:11:10.222Z,50.10
2018-11-11T03:11:42.784Z,57.80
2018-11-11T03:12:15.390Z,53.13
2018-11-11T03:12:49.119Z,52.35
2018-11-11T03:13:21.692Z,51.58
2018-11-11T03:13:54.343Z,58.95
2018-11-11T03:14:26.942Z,59.83
2018-11-11T03:14:59.570Z,51.37
2018-11-11T03:15:32.132Z,53.85
2018-11-11T03:16:04.802Z,50.85
2018-11-11T03:16:37.871Z,51.58
2018-11-11T03:17:10.462Z,46.50
2018-11-11T03:17:43.054Z,64.47
2018-11-11T03:18:15.633Z,50.10
2018-11-11T03:18:48.208Z,59.98
2018-11-11T03:19:20.798Z,53.95
2018-11-11T03:19:53.404Z,55.95
2018-11-11T03:20:26.028Z,50.60
2018-11-11T03:20:58.623Z,55.43
2018-11-11T03:21:31.655Z,52.23
2018-11-11T03:22:04.255Z,59.90
2018-11-11T03:22:36.905Z,50.83
2018-11-11T03:23:09.523Z,57.20
2018-11-11T03:23:42.091Z,59.80
2018-11-11T03:24:14.662Z,54.25
2018-11-11T03:24:47.277Z,54.00
2018-11-11T03:25:19.852Z,47.80
2018-11-11T03:25:52.463Z,48.98
2018-11-11T03:26:25.060Z,51.63
2018-11-11T03:26:57.627Z,55.10
2018-11-11T03:27:30.276Z,53.63
2018-11-11T03:28:02.859Z,57.13
2018-11-11T03:28:35.460Z,52.35
2018-11-11T03:29:08.578Z,47.17
2018-11-11T03:29:41.155Z,53.02
2018-11-11T03:30:15.061Z,51.98
2018-11-11T03:30:47.642Z,56.63
2018-11-11T03:31:20.263Z,57.93
2018-11-11T03:31:52.856Z,52.88
2018-11-11T03:32:25.487Z,53.83
2018-11-11T03:32:58.051Z,48.42
2018-11-11T03:33:30.642Z,54.00
2018-11-11T03:34:03.296Z,64.35
2018-11-11T03:34:35.902Z,48.83
2018-11-11T03:35:09.983Z,56.00
2018-11-11T03:35:42.591Z,56.70
2018-11-11T03:36:15.211Z,57.00
2018-11-11T03:36:47.856Z,55.30
2018-11-11T03:37:20.515Z,57.03
2018-11-11T03:37:53.094Z,53.87
2018-11-11T03:38:25.714Z,51.08
2018-11-11T03:38:58.314Z,53.80
2018-11-11T03:39:30.899Z,47.78
2018-11-11T03:40:05.609Z,46.83
2018-11-11T03:40:38.193Z,54.23
2018-11-11T03:41:10.768Z,52.05
2018-11-11T03:41:43.420Z,74.95
2018-11-11T03:42:16.032Z,50.20
2018-11-11T03:42:49.418Z,50.23
2018-11-11T03:43:21.999Z,63.63
2018-11-11T03:43:54.610Z,59.67
2018-11-11T03:44:27.228Z,57.73
2018-11-11T03:44:59.818Z,53.63
2018-11-11T03:45:32.431Z,51.20
2018-11-11T03:46:05.019Z,53.02
2018-11-11T03:46:37.582Z,54.35
2018-11-11T03:47:10.184Z,58.17
2018-11-11T03:47:43.727Z,49.27
2018-11-11T03:48:16.303Z,54.98
2018-11-11T03:48:48.885Z,63.45
2018-11-11T03:49:21.511Z,52.03
2018-11-11T03:49:54.123Z,51.00
2018-11-11T03:50:26.730Z,64.97
2018-11-11T03:50:59.323Z,52.30
2018-11-11T03:51:31.959Z,59.63
2018-11-11T03:52:04.773Z,58.17
2018-11-11T03:52:37.681Z,64.35
2018-11-11T03:53:10.322Z,60.83
2018-11-11T03:53:42.948Z,57.65
2018-11-11T03:54:15.560Z,54.77
2018-11-11T03:54:48.143Z,60.98
2018-11-11T03:55:20.756Z,57.83
2018-11-11T03:55:53.342Z,65.65
2018-11-11T03:56:25.934Z,64.20
2018-11-11T03:56:58.556Z,60.10
2018-11-11T03:57:31.136Z,56.45
2018-11-11T03:58:03.743Z,55.90
2018-11-11T03:58:36.536Z,63.90
2018-11-11T03:59:09.057Z,59.13
2018-11-11T03:59:41.668Z,52.93
2018-11-11T04:00:15.353Z,51.63
2018-11-11T04:00:47.954Z,53.42
2018-11-11T04:01:20.538Z,54.03
2018-11-11T04:01:53.138Z,50.45
2018-11-11T04:02:25.719Z,62.35
2018-11-11T04:02:58.314Z,65.55
2018-11-11T04:03:30.914Z,52.55
2018-11-11T04:04:03.611Z,58.40
2018-11-11T04:04:36.279Z,62.30
2018-11-11T04:05:10.136Z,55.50
2018-11-11T04:05:42.724Z,57.17
2018-11-11T04:06:15.332Z,58.60
2018-11-11T04:06:47.926Z,54.08
2018-11-11T04:07:20.560Z,54.20
2018-11-11T04:07:53.148Z,48.63
2018-11-11T04:08:25.724Z,72.60
2018-11-11T04:08:58.360Z,58.28
2018-11-11T04:09:30.978Z,53.75
2018-11-11T04:10:04.796Z,57.62
2018-11-11T04:10:37.370Z,60.23
2018-11-11T04:11:09.980Z,54.13
2018-11-11T04:11:42.613Z,52.67
2018-11-11T04:12:15.240Z,53.10
2018-11-11T04:12:48.492Z,75.45
2018-11-11T04:13:21.088Z,54.13
2018-11-11T04:13:53.717Z,65.40
2018-11-11T04:14:26.318Z,52.40
2018-11-11T04:14:58.919Z,50.17
2018-11-11T04:15:31.566Z,54.93
2018-11-11T04:16:04.226Z,51.85
2018-11-11T04:16:36.924Z,52.38
2018-11-11T04:17:09.506Z,54.20
2018-11-11T04:17:42.214Z,52.80
2018-11-11T04:18:14.804Z,59.45
2018-11-11T04:18:47.408Z,50.35
2018-11-11T04:19:19.991Z,47.08
2018-11-11T04:19:52.607Z,54.00
2018-11-11T04:20:25.200Z,51.90
2018-11-11T04:20:57.844Z,53.98
2018-11-11T04:21:30.448Z,56.15
2018-11-11T04:22:07.614Z,53.23
2018-11-11T04:22:40.253Z,53.45
2018-11-11T04:23:12.881Z,53.52
2018-11-11T04:23:45.475Z,51.33
2018-11-11T04:24:18.078Z,55.03
2018-11-11T04:24:51.827Z,55.08
2018-11-11T04:25:24.451Z,48.52
2018-11-11T04:25:57.075Z,50.23
2018-11-11T04:26:29.646Z,55.88
2018-11-11T04:27:02.250Z,52.90
2018-11-11T04:27:34.839Z,69.65
2018-11-11T04:28:07.453Z,64.77
2018-11-11T04:28:40.039Z,65.08
2018-11-11T04:29:12.667Z,66.75
2018-11-11T04:29:45.274Z,62.10
2018-11-11T04:30:17.843Z,55.05
2018-11-11T04:30:50.463Z,58.17
2018-11-11T04:31:23.077Z,57.78
2018-11-11T04:31:55.662Z,56.28
2018-11-11T04:32:28.494Z,52.23
2018-11-11T04:33:01.176Z,60.58
2018-11-11T04:33:33.788Z,49.05
2018-11-11T04:34:06.621Z,60.20
2018-11-11T04:34:39.729Z,56.80
2018-11-11T04:35:12.701Z,50.55
2018-11-11T04:35:45.342Z,56.65
2018-11-11T04:36:17.951Z,50.43
2018-11-11T04:36:50.620Z,65.40
2018-11-11T04:37:23.202Z,49.35
2018-11-11T04:37:55.811Z,52.17
2018-11-11T04:38:28.394Z,62.67
2018-11-11T04:39:01.022Z,47.50
2018-11-11T04:39:33.660Z,50.58
2018-11-11T04:40:07.920Z,55.75
2018-11-11T04:40:40.583Z,54.33
2018-11-11T04:41:13.193Z,64.47
2018-11-11T04:41:45.812Z,51.53
2018-11-11T04:42:19.012Z,67.95
2018-11-11T04:42:51.666Z,46.18
2018-11-11T04:43:24.246Z,51.13
2018-11-11T04:43:56.811Z,54.90
2018-11-11T04:44:29.501Z,58.40
2018-11-11T04:45:02.146Z,51.13
2018-11-11T04:45:34.742Z,53.30
2018-11-11T04:46:07.335Z,51.37
2018-11-11T04:46:39.964Z,75.40
2018-11-11T04:47:12.570Z,49.63
2018-11-11T04:47:45.871Z,51.75
2018-11-11T04:48:18.537Z,49.20
2018-11-11T04:48:51.168Z,52.13
2018-11-11T04:49:23.792Z,54.18
2018-11-11T04:49:56.399Z,49.38
2018-11-11T04:50:28.991Z,51.02
2018-11-11T04:51:01.608Z,59.53
2018-11-11T04:51:34.342Z,63.60
2018-11-11T04:52:06.951Z,60.67
2018-11-11T04:52:39.558Z,64.75
2018-11-11T04:53:12.167Z,58.55
2018-11-11T04:53:44.752Z,82.37
2018-11-11T04:54:17.323Z,52.55
2018-11-11T04:54:49.931Z,48.48
2018-11-11T04:55:22.570Z,61.92
2018-11-11T04:55:55.163Z,60.28
2018-11-11T04:56:27.760Z,48.90
2018-11-11T04:57:00.343Z,49.23
2018-11-11T04:57:32.946Z,50.52
2018-11-11T04:58:05.587Z,49.15
2018-11-11T04:58:38.232Z,49.95
2018-11-11T04:59:10.891Z,54.03
2018-11-11T04:59:43.463Z,56.80
2018-11-11T05:00:16.091Z,48.73
2018-11-11T05:00:48.694Z,55.67
2018-11-11T05:01:21.373Z,49.67
2018-11-11T05:01:53.977Z,48.15
2018-11-11T05:02:26.614Z,53.20
2018-11-11T05:02:59.206Z,61.80
2018-11-11T05:03:32.029Z,45.67
2018-11-11T05:04:04.717Z,52.23
2018-11-11T05:04:37.360Z,50.05
2018-11-11T05:05:10.963Z,57.70
2018-11-11T05:05:43.550Z,66.33
2018-11-11T05:06:16.162Z,55.50
2018-11-11T05:06:48.758Z,54.75
2018-11-11T05:07:21.350Z,49.42
2018-11-11T05:07:53.924Z,48.23
2018-11-11T05:08:26.544Z,56.92
2018-11-11T05:08:59.114Z,57.60
2018-11-11T05:09:31.754Z,48.83
2018-11-11T05:10:04.562Z,49.42
2018-11-11T05:10:37.143Z,61.80
2018-11-11T05:11:09.731Z,57.10
2018-11-11T05:11:42.365Z,49.23
2018-11-11T05:12:14.934Z,50.33
2018-11-11T05:12:47.519Z,47.17
2018-11-11T05:13:20.163Z,50.60
2018-11-11T05:13:52.901Z,58.30
2018-11-11T05:14:25.626Z,44.33
2018-11-11T05:14:58.243Z,49.20
2018-11-11T05:15:30.996Z,83.22
2018-11-11T05:16:03.667Z,50.80
2018-11-11T05:16:36.323Z,59.67
2018-11-11T05:17:08.993Z,49.67
2018-11-11T05:17:41.835Z,61.80
2018-11-11T05:18:14.531Z,51.42
2018-11-11T05:18:47.182Z,52.15
2018-11-11T05:19:19.876Z,49.18
2018-11-11T05:19:52.473Z,56.48
2018-11-11T05:20:25.134Z,50.90
2018-11-11T05:20:57.790Z,47.50
2018-11-11T05:21:30.344Z,51.42
2018-11-11T05:22:03.052Z,55.70
2018-11-11T05:22:35.707Z,65.92
2018-11-11T05:23:08.476Z,48.80
2018-11-11T05:23:41.152Z,51.50
2018-11-11T05:24:13.748Z,49.15
2018-11-11T05:24:46.367Z,48.98
2018-11-11T05:25:19.068Z,53.90
2018-11-11T05:25:51.714Z,54.10
2018-11-11T05:26:24.387Z,62.80
2018-11-11T05:26:56.971Z,49.98
2018-11-11T05:27:29.608Z,55.25
2018-11-11T05:28:02.226Z,46.85
2018-11-11T05:28:34.854Z,49.15
2018-11-11T05:29:07.451Z,70.95
2018-11-11T05:29:40.152Z,48.98
2018-11-11T05:30:13.428Z,61.20
2018-11-11T05:30:46.119Z,71.50
2018-11-11T05:31:18.712Z,56.40
2018-11-11T05:31:51.314Z,67.87
2018-11-11T05:32:23.919Z,48.52
2018-11-11T05:32:56.568Z,60.83
2018-11-11T05:33:29.142Z,56.30
2018-11-11T05:34:01.741Z,50.52
2018-11-11T05:34:34.359Z,55.48
2018-11-11T05:35:07.524Z,51.92
2018-11-11T05:35:40.139Z,59.85
2018-11-11T05:36:12.735Z,57.03
2018-11-11T05:36:45.389Z,44.98
2018-11-11T05:37:17.972Z,60.25
2018-11-11T05:37:50.618Z,70.47
2018-11-11T05:38:23.229Z,57.27
2018-11-11T05:38:55.836Z,53.78
2018-11-11T05:39:28.407Z,70.20
2018-11-11T05:40:00.990Z,53.00
2018-11-11T05:40:33.608Z,50.43
2018-11-11T05:41:06.235Z,48.83
2018-11-11T05:41:39.022Z,49.40
2018-11-11T05:42:11.645Z,46.13
2018-11-11T05:42:44.301Z,55.60
2018-11-11T05:43:16.907Z,55.43
2018-11-11T05:43:49.526Z,47.48
2018-11-11T05:44:22.158Z,45.95
2018-11-11T05:44:54.771Z,60.98
2018-11-11T05:45:27.396Z,53.52
2018-11-11T05:45:59.995Z,51.20
2018-11-11T05:46:32.616Z,52.62
2018-11-11T05:47:05.534Z,52.55
2018-11-11T05:47:38.479Z,46.85
2018-11-11T05:48:11.108Z,48.83
2018-11-11T05:48:43.682Z,48.95
2018-11-11T05:49:16.371Z,51.05
2018-11-11T05:49:48.934Z,48.05
2018-11-11T05:50:21.555Z,53.25
2018-11-11T05:50:54.147Z,46.80
2018-11-11T05:51:26.722Z,47.35
2018-11-11T05:51:59.344Z,47.73
2018-11-11T05:52:31.938Z,48.55
2018-11-11T05:53:04.567Z,48.00
2018-11-11T05:53:37.140Z,44.93
2018-11-11T05:54:09.756Z,44.50
2018-11-11T05:54:42.372Z,51.80
2018-11-11T05:55:15.004Z,43.90
2018-11-11T05:55:47.628Z,47.67
2018-11-11T05:56:20.245Z,46.02
2018-11-11T05:56:52.834Z,47.40
2018-11-11T05:57:25.499Z,49.27
2018-11-11T05:57:58.156Z,45.33
2018-11-11T05:58:30.846Z,43.45
2018-11-11T05:59:03.670Z,46.23
2018-11-11T05:59:36.246Z,43.95
2018-11-11T06:00:11.181Z,44.90
2018-11-11T06:00:43.811Z,44.55
2018-11-11T06:01:16.410Z,46.80
2018-11-11T06:01:49.058Z,43.60
2018-11-11T06:02:21.657Z,50.92
2018-11-11T06:02:54.249Z,56.68
2018-11-11T06:03:26.874Z,49.95
2018-11-11T06:03:59.528Z,59.25
2018-11-11T06:04:32.149Z,48.35
2018-11-11T06:05:06.504Z,50.08
2018-11-11T06:05:39.122Z,48.73
2018-11-11T06:06:11.769Z,47.78
2018-11-11T06:06:44.370Z,56.50
2018-11-11T06:07:17.045Z,53.20
2018-11-11T06:07:49.637Z,70.37
2018-11-11T06:08:22.260Z,46.95
2018-11-11T06:08:54.887Z,62.30
2018-11-11T06:09:27.532Z,79.25
2018-11-11T06:10:00.123Z,82.15
2018-11-11T06:10:32.742Z,60.25
2018-11-11T06:11:05.376Z,41.85
2018-11-11T06:11:38.804Z,60.80
2018-11-11T06:12:11.399Z,56.70
2018-11-11T06:12:44.035Z,50.12
2018-11-11T06:13:16.633Z,56.63
2018-11-11T06:13:49.236Z,56.45
2018-11-11T06:14:21.855Z,74.82
2018-11-11T06:14:54.469Z,49.48
2018-11-11T06:15:27.059Z,46.28
2018-11-11T06:15:59.710Z,48.78
2018-11-11T06:16:32.331Z,41.55
2018-11-11T06:17:04.979Z,49.15
2018-11-11T06:17:38.218Z,55.55
2018-11-11T06:18:10.814Z,43.90
2018-11-11T06:18:43.439Z,44.58
2018-11-11T06:19:16.115Z,43.38
2018-11-11T06:19:48.760Z,54.93
2018-11-11T06:20:21.417Z,64.07
2018-11-11T06:20:54.039Z,47.65
2018-11-11T06:21:26.701Z,54.38
2018-11-11T06:21:59.352Z,55.95
2018-11-11T06:22:31.951Z,54.30
2018-11-11T06:23:04.583Z,74.65
2018-11-11T06:23:37.205Z,60.28
2018-11-11T06:24:09.873Z,54.35
2018-11-11T06:24:42.498Z,41.05
2018-11-11T06:25:15.127Z,48.98
2018-11-11T06:25:47.750Z,62.80
2018-11-11T06:26:20.414Z,46.75
2018-11-11T06:26:53.051Z,44.25
2018-11-11T06:27:25.705Z,46.98
2018-11-11T06:27:58.326Z,60.35
2018-11-11T06:28:30.972Z,46.05
2018-11-11T06:29:03.627Z,51.13
2018-11-11T06:29:36.207Z,56.25
2018-11-11T06:30:09.531Z,60.33
2018-11-11T06:30:42.164Z,50.98
2018-11-11T06:31:14.813Z,62.30
2018-11-11T06:31:47.864Z,48.48
2018-11-11T06:32:20.456Z,49.20
2018-11-11T06:32:53.103Z,54.55
2018-11-11T06:33:25.696Z,66.85
2018-11-11T06:33:58.327Z,61.35
2018-11-11T06:34:30.897Z,47.48
2018-11-11T06:35:03.614Z,47.25
2018-11-11T06:35:36.249Z,39.33
2018-11-11T06:36:08.845Z,47.15
2018-11-11T06:36:41.469Z,47.90
2018-11-11T06:37:14.101Z,48.68
2018-11-11T06:37:46.722Z,43.63
2018-11-11T06:38:19.451Z,41.53
2018-11-11T06:38:52.063Z,44.80
2018-11-11T06:39:24.674Z,47.25
2018-11-11T06:39:57.284Z,42.23
2018-11-11T06:40:29.896Z,48.83
2018-11-11T06:41:02.495Z,55.05
2018-11-11T06:41:35.142Z,48.55
2018-11-11T06:42:07.796Z,49.10
2018-11-11T06:42:40.527Z,46.42
2018-11-11T06:43:13.170Z,50.12
2018-11-11T06:43:45.828Z,46.53
2018-11-11T06:44:18.435Z,50.55
2018-11-11T06:44:51.048Z,63.45
2018-11-11T06:45:23.704Z,50.75
2018-11-11T06:45:56.332Z,47.58
2018-11-11T06:46:28.934Z,43.92
2018-11-11T06:47:01.899Z,45.95
2018-11-11T06:47:34.519Z,44.90
2018-11-11T06:48:07.158Z,51.98
2018-11-11T06:48:39.727Z,54.93
2018-11-11T06:49:12.374Z,49.23
2018-11-11T06:49:44.982Z,47.27
2018-11-11T06:50:17.630Z,61.08
2018-11-11T06:50:50.244Z,48.80
2018-11-11T06:51:22.855Z,41.98
2018-11-11T06:51:55.443Z,50.48
2018-11-11T06:52:28.065Z,49.03
2018-11-11T06:53:00.711Z,46.98
2018-11-11T06:53:33.350Z,46.65
2018-11-11T06:54:06.097Z,42.10
2018-11-11T06:54:38.723Z,44.48
2018-11-11T06:55:11.629Z,47.10
2018-11-11T06:55:44.255Z,50.83
2018-11-11T06:56:16.844Z,50.52
2018-11-11T06:59:48.374Z,48.95
2018-11-11T07:00:20.967Z,91.00
2018-11-11T07:00:53.583Z,50.73
2018-11-11T07:01:26.212Z,44.53
2018-11-11T07:01:58.810Z,55.90
2018-11-11T07:02:34.727Z,72.20
2018-11-11T07:03:18.652Z,51.53
2018-11-11T07:03:53.496Z,43.75
2018-11-11T07:04:26.085Z,50.55
2018-11-11T07:04:58.719Z,45.80
2018-11-11T07:05:31.315Z,47.30
2018-11-11T07:06:03.928Z,48.33